createdAt,value
2023-01-01T00:00:40.204Z,8.48
2023-01-01T00:03:07.487Z,8.52
2023-01-01T00:05:34.292Z,8.53
2023-01-01T00:08:05.105Z,8.54
2023-01-01T00:10:33.502Z,8.53
2023-01-01T00:13:00.893Z,8.50
2023-01-01T00:15:28.580Z,8.53
2023-01-01T00:17:56.353Z,8.51
2023-01-01T00:20:23.561Z,8.50
2023-01-01T00:22:55.582Z,8.45
2023-01-01T00:25:24.061Z,8.45
2023-01-01T00:27:51.670Z,8.41
2023-01-01T00:30:18.725Z,8.38
2023-01-01T00:32:54.365Z,8.44
2023-01-01T00:35:25.517Z,8.40
2023-01-01T00:37:53.244Z,8.40
2023-01-01T00:40:20.350Z,8.32
2023-01-01T00:42:47.144Z,8.32
2023-01-01T00:45:20.523Z,8.40
2023-01-01T00:47:48.759Z,8.38
2023-01-01T00:50:15.747Z,8.38
2023-01-01T00:52:42.516Z,8.43
2023-01-01T00:55:10.530Z,8.39
2023-01-01T00:57:37.444Z,8.38
2023-01-01T01:00:06.533Z,8.35
2023-01-01T01:02:33.766Z,8.37
2023-01-01T01:05:01.763Z,8.41
2023-01-01T01:07:28.747Z,8.40
2023-01-01T01:09:55.524Z,8.43
2023-01-01T01:12:22.287Z,8.43
2023-01-01T01:14:49.076Z,8.39
2023-01-01T01:17:15.929Z,8.39
2023-01-01T01:19:42.725Z,8.42
2023-01-01T01:22:09.743Z,8.36
2023-01-01T01:24:36.701Z,8.41
2023-01-01T01:27:03.642Z,8.38
2023-01-01T01:29:30.438Z,8.39
2023-01-01T01:31:57.415Z,8.34
2023-01-01T01:34:27.748Z,8.26
2023-01-01T01:36:55.919Z,8.18
2023-01-01T01:39:23.118Z,8.07
2023-01-01T01:41:50.178Z,8.08
2023-01-01T01:44:59.112Z,7.96
2023-01-01T01:47:50.497Z,7.98
2023-01-01T01:50:27.651Z,7.91
2023-01-01T01:53:16.824Z,7.87
2023-01-01T01:55:52.113Z,7.86
2023-01-01T01:58:19.408Z,7.87
2023-01-01T02:00:46.294Z,7.92
2023-01-01T02:03:21.327Z,7.95
2023-01-01T02:05:50.826Z,7.97
2023-01-01T02:08:18.286Z,7.98
2023-01-01T02:10:45.096Z,8.00
2023-01-01T02:13:11.859Z,8.10
2023-01-01T02:16:14.009Z,8.07
2023-01-01T02:19:10.403Z,8.10
2023-01-01T02:22:10.261Z,8.09
2023-01-01T02:25:10.915Z,8.13
2023-01-01T02:28:20.242Z,8.13
2023-01-01T02:30:49.006Z,8.14
2023-01-01T02:33:22.191Z,8.15
2023-01-01T02:36:05.089Z,8.08
2023-01-01T02:38:46.894Z,8.06
2023-01-01T02:41:20.802Z,7.90
2023-01-01T02:43:48.408Z,7.88
2023-01-01T02:48:49.009Z,7.71
2023-01-01T02:51:30.947Z,7.58
2023-01-01T02:54:22.261Z,7.51
2023-01-01T02:56:59.309Z,7.41
2023-01-01T02:59:47.736Z,7.34
2023-01-01T03:02:34.076Z,7.29
2023-01-01T03:05:23.052Z,7.25
2023-01-01T03:08:17.897Z,7.22
2023-01-01T03:11:09.178Z,7.18
2023-01-01T03:14:02.857Z,7.12
2023-01-01T03:17:05.636Z,7.08
2023-01-01T03:19:38.162Z,7.01
2023-01-01T03:22:15.457Z,7.00
2023-01-01T03:24:53.593Z,6.95
2023-01-01T03:27:28.608Z,6.95
2023-01-01T03:29:58.009Z,6.89
2023-01-01T03:32:54.190Z,6.87
2023-01-01T03:35:25.704Z,6.92
2023-01-01T03:37:56.225Z,6.93
2023-01-01T03:40:24.442Z,6.95
2023-01-01T03:43:06.524Z,6.97
2023-01-01T03:45:41.084Z,7.02
2023-01-01T03:48:09.945Z,7.01
2023-01-01T03:51:01.517Z,7.00
2023-01-01T03:53:43.259Z,6.99
2023-01-01T03:56:52.603Z,6.90
2023-01-01T03:59:31.238Z,7.00
2023-01-01T04:01:59.495Z,6.93
2023-01-01T04:04:27.153Z,6.97
2023-01-01T04:06:55.108Z,6.95
2023-01-01T04:09:30.969Z,6.95
2023-01-01T04:12:04.931Z,6.95
2023-01-01T04:14:41.279Z,6.91
2023-01-01T04:17:10.985Z,6.87
2023-01-01T04:19:38.149Z,6.87
2023-01-01T04:22:05.851Z,6.82
2023-01-01T04:24:32.657Z,6.91
2023-01-01T04:26:59.769Z,6.94
2023-01-01T04:29:26.995Z,7.03
2023-01-01T04:31:54.171Z,7.05
2023-01-01T04:34:21.040Z,7.13
2023-01-01T04:36:47.949Z,7.15
2023-01-01T04:39:14.750Z,7.20
2023-01-01T04:41:41.535Z,7.17
2023-01-01T04:44:08.726Z,7.18
2023-01-01T04:46:35.557Z,7.19
2023-01-01T04:49:02.384Z,7.12
2023-01-01T04:51:29.181Z,7.06
2023-01-01T04:53:56.142Z,6.97
2023-01-01T04:56:23.858Z,6.88
2023-01-01T04:58:51.190Z,6.81
2023-01-01T05:01:25.960Z,6.68
2023-01-01T05:03:53.881Z,6.59
2023-01-01T05:06:21.324Z,6.54
2023-01-01T05:08:50.896Z,6.49
2023-01-01T05:11:26.874Z,6.42
2023-01-01T05:13:57.543Z,6.36
2023-01-01T05:16:28.067Z,6.27
2023-01-01T05:18:55.422Z,6.30
2023-01-01T05:21:29.428Z,6.31
2023-01-01T05:23:59.543Z,6.25
2023-01-01T05:26:31.866Z,6.28
2023-01-01T05:29:00.637Z,6.24
2023-01-01T05:31:31.583Z,6.25
2023-01-01T05:36:38.821Z,6.21
2023-01-01T05:39:10.693Z,6.23
2023-01-01T05:41:37.631Z,6.26
2023-01-01T05:44:07.430Z,6.30
2023-01-01T05:46:34.502Z,6.34
2023-01-01T05:49:01.372Z,6.41
2023-01-01T05:53:59.152Z,6.54
2023-01-01T05:56:27.535Z,6.52
2023-01-01T05:58:55.262Z,6.54
2023-01-01T06:01:25.972Z,6.56
2023-01-01T06:03:55.015Z,6.54
2023-01-01T06:06:29.538Z,6.60
2023-01-01T06:08:59.682Z,6.59
2023-01-01T06:11:27.532Z,6.65
2023-01-01T06:13:58.978Z,6.66
2023-01-01T06:16:27.729Z,6.72
2023-01-01T06:18:54.615Z,6.75
2023-01-01T06:21:25.335Z,6.77
2023-01-01T06:23:52.900Z,6.85
2023-01-01T06:26:27.459Z,6.85
2023-01-01T06:28:55.591Z,6.92
2023-01-01T06:31:23.551Z,6.99
2023-01-01T06:33:51.030Z,6.98
2023-01-01T06:36:22.427Z,7.00
2023-01-01T06:38:53.446Z,6.96
2023-01-01T06:41:27.117Z,7.02
2023-01-01T06:43:56.830Z,7.02
2023-01-01T06:46:24.785Z,7.05
2023-01-01T06:49:01.556Z,7.05
2023-01-01T06:51:43.571Z,7.05
2023-01-01T06:54:11.681Z,7.03
2023-01-01T06:56:38.981Z,7.02
2023-01-01T06:59:06.535Z,6.93
2023-01-01T07:01:43.889Z,6.87
2023-01-01T07:04:15.557Z,6.77
2023-01-01T07:06:43.422Z,6.66
2023-01-01T07:09:10.237Z,6.64
2023-01-01T07:11:37.271Z,6.57
2023-01-01T07:14:04.123Z,6.53
2023-01-01T07:16:31.104Z,6.54
2023-01-01T07:18:58.541Z,6.53
2023-01-01T07:21:30.220Z,6.52
2023-01-01T07:24:02.692Z,6.43
2023-01-01T07:26:31.848Z,6.39
2023-01-01T07:29:06.875Z,6.33
2023-01-01T07:31:40.442Z,6.30
2023-01-01T07:34:11.717Z,6.24
2023-01-01T07:36:38.579Z,6.18
2023-01-01T07:39:05.516Z,6.18
2023-01-01T07:41:32.476Z,6.13
2023-01-01T07:43:59.584Z,6.13
2023-01-01T07:46:26.560Z,6.09
2023-01-01T07:48:53.520Z,6.12
2023-01-01T07:51:20.337Z,6.11
2023-01-01T07:53:47.163Z,6.10
2023-01-01T07:56:13.959Z,6.10
2023-01-01T07:58:41.876Z,6.09
2023-01-01T08:01:13.622Z,6.09
2023-01-01T08:03:40.903Z,6.11
2023-01-01T08:06:14.124Z,6.08
2023-01-01T08:08:41.532Z,6.10
2023-01-01T08:11:09.225Z,6.09
2023-01-01T08:13:36.009Z,6.11
2023-01-01T08:16:03.185Z,6.13
2023-01-01T08:18:30.395Z,6.13
2023-01-01T08:20:57.644Z,6.11
2023-01-01T08:23:25.009Z,6.14
2023-01-01T08:25:51.896Z,6.10
2023-01-01T08:28:18.702Z,6.13
2023-01-01T08:30:45.586Z,6.12
2023-01-01T08:33:12.404Z,6.18
2023-01-01T08:35:42.548Z,6.16
2023-01-01T08:38:12.210Z,6.17
2023-01-01T08:40:39.650Z,6.17
2023-01-01T08:43:06.599Z,6.19
2023-01-01T08:45:33.472Z,6.18
2023-01-01T08:48:00.682Z,6.20
2023-01-01T08:50:27.823Z,6.24
2023-01-01T08:52:54.848Z,6.25
2023-01-01T08:55:21.745Z,6.27
2023-01-01T08:57:48.612Z,6.24
2023-01-01T09:00:16.580Z,6.26
2023-01-01T09:02:43.549Z,6.29
2023-01-01T09:05:11.030Z,6.25
2023-01-01T09:07:38.125Z,6.32
2023-01-01T09:10:05.632Z,6.35
2023-01-01T09:12:32.418Z,6.34
2023-01-01T09:14:59.256Z,6.40
2023-01-01T09:17:26.177Z,6.42
2023-01-01T09:19:52.957Z,6.46
2023-01-01T09:22:19.787Z,6.49
2023-01-01T09:24:46.915Z,6.52
2023-01-01T09:27:13.718Z,6.58
2023-01-01T09:29:40.544Z,6.60
2023-01-01T09:32:07.314Z,6.68
2023-01-01T09:34:34.101Z,6.71
2023-01-01T09:37:00.891Z,6.74
2023-01-01T09:39:27.884Z,6.78
2023-01-01T09:42:14.998Z,6.81
2023-01-01T09:44:56.663Z,6.86
2023-01-01T09:47:56.697Z,6.88
2023-01-01T09:50:40.403Z,6.88
2023-01-01T09:53:38.380Z,6.94
2023-01-01T09:56:06.598Z,6.96
2023-01-01T09:58:38.599Z,6.97
2023-01-01T10:01:31.721Z,7.03
2023-01-01T10:04:27.580Z,7.07
2023-01-01T10:07:34.648Z,7.12
2023-01-01T10:10:12.262Z,7.18
2023-01-01T10:13:22.153Z,7.22
2023-01-01T10:16:08.590Z,7.30
2023-01-01T10:18:39.107Z,7.40
2023-01-01T10:21:12.113Z,7.46
2023-01-01T10:23:56.276Z,7.56
2023-01-01T10:26:27.515Z,7.65
2023-01-01T10:29:09.838Z,7.73
2023-01-01T10:31:50.065Z,7.85
2023-01-01T10:34:28.247Z,7.89
2023-01-01T10:36:58.871Z,7.95
2023-01-01T10:39:27.173Z,8.03
2023-01-01T10:41:54.283Z,8.09
2023-01-01T10:44:34.354Z,8.17
2023-01-01T10:47:28.716Z,8.22
2023-01-01T10:50:08.029Z,8.24
2023-01-01T10:52:40.889Z,8.26
2023-01-01T10:55:21.273Z,8.29
2023-01-01T10:57:48.046Z,8.35
2023-01-01T11:00:29.127Z,8.37
2023-01-01T11:03:19.649Z,8.39
2023-01-01T11:06:11.277Z,8.44
2023-01-01T11:08:41.361Z,8.52
2023-01-01T11:11:23.259Z,8.59
2023-01-01T11:13:53.479Z,8.67
2023-01-01T11:16:20.716Z,8.72
2023-01-01T11:18:48.227Z,8.82
2023-01-01T11:21:22.460Z,8.91
2023-01-01T11:23:53.199Z,8.99
2023-01-01T11:26:27.207Z,9.01
2023-01-01T11:29:29.413Z,9.05
2023-01-01T11:31:58.225Z,9.07
2023-01-01T11:34:43.132Z,9.10
2023-01-01T11:37:18.917Z,9.09
2023-01-01T11:39:50.450Z,9.13
2023-01-01T11:42:25.029Z,9.11
2023-01-01T11:44:59.613Z,9.12
2023-01-01T11:47:36.802Z,9.15
2023-01-01T11:50:14.913Z,9.11
2023-01-01T11:52:48.738Z,9.07
2023-01-01T11:55:22.422Z,8.95
2023-01-01T11:58:46.839Z,8.90
2023-01-01T12:01:25.008Z,8.88
2023-01-01T12:04:00.270Z,8.85
2023-01-01T12:06:38.870Z,8.70
2023-01-01T12:09:18.108Z,8.64
2023-01-01T12:12:16.167Z,8.51
2023-01-01T12:15:10.083Z,8.47
2023-01-01T12:18:31.952Z,8.44
2023-01-01T12:21:17.917Z,8.39
2023-01-01T12:23:44.824Z,8.38
2023-01-01T12:26:38.159Z,8.39
2023-01-01T12:29:36.207Z,8.43
2023-01-01T12:32:48.626Z,8.38
2023-01-01T12:35:22.236Z,8.48
2023-01-01T12:38:05.081Z,8.53
2023-01-01T12:41:06.553Z,8.52
2023-01-01T12:43:58.105Z,8.58
2023-01-01T12:46:29.137Z,8.60
2023-01-01T12:49:10.266Z,8.63
2023-01-01T12:51:59.464Z,8.68
2023-01-01T12:55:12.997Z,8.73
2023-01-01T12:58:15.973Z,8.80
2023-01-01T13:01:12.985Z,8.76
2023-01-01T13:04:00.583Z,8.81
2023-01-01T13:06:37.947Z,8.81
2023-01-01T13:09:13.196Z,8.77
2023-01-01T13:11:44.941Z,8.80
2023-01-01T13:14:12.359Z,8.74
2023-01-01T13:16:48.492Z,8.74
2023-01-01T13:19:36.435Z,8.72
2023-01-01T13:22:28.460Z,8.71
2023-01-01T13:25:16.475Z,8.72
2023-01-01T13:27:59.653Z,8.68
2023-01-01T13:30:35.641Z,8.69
2023-01-01T13:33:31.261Z,8.67
2023-01-01T13:36:10.286Z,8.69
2023-01-01T13:38:52.408Z,8.71
2023-01-01T13:41:44.809Z,8.73
2023-01-01T13:44:18.912Z,8.72
2023-01-01T13:46:52.321Z,8.78
2023-01-01T13:49:48.471Z,8.72
2023-01-01T13:52:56.793Z,8.74
2023-01-01T13:55:58.623Z,8.78
2023-01-01T13:59:06.346Z,8.75
2023-01-01T14:01:36.267Z,8.73
2023-01-01T14:04:13.993Z,8.75
2023-01-01T14:06:48.458Z,8.67
2023-01-01T14:09:19.707Z,8.68
2023-01-01T14:11:46.664Z,8.69
2023-01-01T14:14:29.570Z,8.64
2023-01-01T14:17:02.751Z,8.64
2023-01-01T14:19:29.904Z,8.62
2023-01-01T14:21:57.466Z,8.62
2023-01-01T14:24:25.614Z,8.63
2023-01-01T14:26:55.063Z,8.59
2023-01-01T14:29:32.773Z,8.59
2023-01-01T14:32:12.000Z,8.58
2023-01-01T14:34:38.911Z,8.58
2023-01-01T14:37:21.911Z,8.54
2023-01-01T14:40:05.868Z,8.51
2023-01-01T14:42:35.373Z,8.49
2023-01-01T14:45:03.259Z,8.48
2023-01-01T14:47:35.257Z,8.50
2023-01-01T14:50:31.139Z,8.40
2023-01-01T14:53:05.599Z,8.43
2023-01-01T14:55:39.787Z,8.42
2023-01-01T14:58:12.410Z,8.37
2023-01-01T15:00:39.270Z,8.35
2023-01-01T15:03:19.142Z,8.32
2023-01-01T15:05:59.047Z,8.31
2023-01-01T15:08:27.122Z,8.30
2023-01-01T15:10:55.523Z,8.28
2023-01-01T15:13:27.999Z,8.23
2023-01-01T15:15:58.037Z,8.23
2023-01-01T15:18:35.265Z,8.22
2023-01-01T15:21:05.581Z,8.19
2023-01-01T15:23:32.606Z,8.19
2023-01-01T15:25:59.548Z,8.13
2023-01-01T15:28:26.389Z,8.11
2023-01-01T15:30:57.594Z,8.09
2023-01-01T15:33:24.714Z,8.13
2023-01-01T15:35:54.037Z,8.12
2023-01-01T15:38:27.776Z,8.11
2023-01-01T15:40:54.588Z,8.07
2023-01-01T15:43:24.051Z,8.12
2023-01-01T15:45:57.341Z,8.12
2023-01-01T15:48:33.644Z,8.11
2023-01-01T15:51:13.452Z,8.12
2023-01-01T15:53:48.331Z,8.09
2023-01-01T15:56:16.336Z,8.08
2023-01-01T15:58:54.162Z,8.13
2023-01-01T16:01:26.561Z,8.15
2023-01-01T16:04:09.658Z,8.15
2023-01-01T16:06:45.919Z,8.10
2023-01-01T16:09:18.281Z,8.13
2023-01-01T16:11:46.651Z,8.15
2023-01-01T16:14:13.487Z,8.15
2023-01-01T16:16:44.111Z,8.12
2023-01-01T16:19:18.376Z,8.07
2023-01-01T16:21:45.287Z,8.15
2023-01-01T16:24:17.188Z,8.09
2023-01-01T16:26:44.804Z,8.12
2023-01-01T16:29:12.440Z,8.10
2023-01-01T16:31:40.640Z,8.09
2023-01-01T16:34:07.541Z,8.09
2023-01-01T16:36:34.559Z,8.10
2023-01-01T16:39:01.791Z,8.08
2023-01-01T16:41:30.387Z,8.09
2023-01-01T16:43:58.121Z,8.08
2023-01-01T16:46:26.698Z,8.09
2023-01-01T16:48:54.017Z,8.08
2023-01-01T16:51:24.883Z,8.08
2023-01-01T16:53:51.704Z,8.09
2023-01-01T16:56:18.880Z,8.12
2023-01-01T16:58:51.549Z,8.10
2023-01-01T17:01:19.341Z,8.13
2023-01-01T17:03:46.552Z,8.13
2023-01-01T17:06:13.541Z,8.09
2023-01-01T17:08:40.565Z,8.11
2023-01-01T17:11:11.039Z,8.10
2023-01-01T17:13:37.881Z,8.09
2023-01-01T17:16:05.223Z,8.04
2023-01-01T17:19:13.901Z,8.05
2023-01-01T17:21:19.750Z,8.05
2023-01-01T17:23:46.998Z,8.06
2023-01-01T17:26:20.229Z,8.02
2023-01-01T17:28:53.607Z,8.02
2023-01-01T17:31:24.985Z,8.01
2023-01-01T17:33:51.848Z,7.99
2023-01-01T17:36:18.856Z,7.97
2023-01-01T17:38:45.840Z,7.96
2023-01-01T17:41:15.536Z,7.90
2023-01-01T17:43:48.772Z,7.92
2023-01-01T17:46:21.835Z,7.91
2023-01-01T17:48:49.628Z,7.93
2023-01-01T17:51:18.978Z,7.90
2023-01-01T17:53:46.863Z,7.88
2023-01-01T17:56:16.903Z,7.87
2023-01-01T17:58:46.387Z,7.85
2023-01-01T18:01:13.267Z,7.84
2023-01-01T18:03:41.684Z,7.83
2023-01-01T18:06:08.674Z,7.81
2023-01-01T18:08:35.459Z,7.79
2023-01-01T18:11:02.413Z,7.81
2023-01-01T18:13:29.235Z,7.78
2023-01-01T18:16:01.506Z,7.75
2023-01-01T18:18:30.951Z,7.77
2023-01-01T18:21:10.653Z,7.79
2023-01-01T18:23:39.915Z,7.78
2023-01-01T18:26:09.994Z,7.78
2023-01-01T18:28:37.826Z,7.80
2023-01-01T18:31:17.258Z,7.79
2023-01-01T18:33:44.197Z,7.83
2023-01-01T18:36:18.684Z,7.84
2023-01-01T18:39:35.158Z,7.90
2023-01-01T18:42:35.007Z,7.88
2023-01-01T18:45:17.698Z,7.92
2023-01-01T18:47:46.544Z,7.98
2023-01-01T18:50:27.616Z,7.98
2023-01-01T18:53:18.811Z,7.95
2023-01-01T18:55:53.544Z,7.97
2023-01-01T18:58:24.987Z,7.98
2023-01-01T19:00:54.033Z,8.00
2023-01-01T19:03:28.241Z,7.96
2023-01-01T19:05:57.230Z,7.95
2023-01-01T19:08:27.007Z,7.96
2023-01-01T19:11:03.064Z,7.93
2023-01-01T19:13:42.899Z,7.91
2023-01-01T19:16:12.888Z,7.91
2023-01-01T19:18:45.633Z,7.88
2023-01-01T19:21:12.415Z,7.88
2023-01-01T19:23:53.988Z,7.84
2023-01-01T19:26:28.741Z,7.79
2023-01-01T19:29:05.740Z,7.81
2023-01-01T19:31:32.624Z,7.79
2023-01-01T19:33:59.504Z,7.74
2023-01-01T19:36:26.298Z,7.73
2023-01-01T19:38:53.117Z,7.74
2023-01-01T19:41:19.916Z,7.72
2023-01-01T19:43:46.753Z,7.73
2023-01-01T19:46:13.923Z,7.71
2023-01-01T19:48:40.775Z,7.71
2023-01-01T19:51:07.587Z,7.69
2023-01-01T19:53:34.354Z,7.69
2023-01-01T19:56:01.198Z,7.68
2023-01-01T19:58:27.964Z,7.68
2023-01-01T20:00:54.805Z,7.68
2023-01-01T20:06:10.301Z,7.71
2023-01-01T20:08:40.885Z,7.71
2023-01-01T20:11:08.519Z,7.69
2023-01-01T20:13:35.330Z,7.68
2023-01-01T20:16:03.170Z,7.69
2023-01-01T20:18:30.239Z,7.71
2023-01-01T20:21:18.094Z,7.70
2023-01-01T20:23:48.785Z,7.68
2023-01-01T20:26:16.005Z,7.73
2023-01-01T20:29:01.463Z,7.71
2023-01-01T20:31:28.310Z,7.67
2023-01-01T20:33:55.186Z,7.63
2023-01-01T20:37:00.448Z,7.65
2023-01-01T20:39:27.477Z,7.65
2023-01-01T20:41:54.470Z,7.60
2023-01-01T20:44:21.643Z,7.58
2023-01-01T20:46:48.520Z,7.57
2023-01-01T20:49:19.458Z,7.55
2023-01-01T20:51:49.764Z,7.52
2023-01-01T20:54:16.721Z,7.47
2023-01-01T20:56:43.584Z,7.42
2023-01-01T20:59:34.191Z,7.37
2023-01-01T21:02:00.025Z,7.34
2023-01-01T21:04:27.049Z,7.34
2023-01-01T21:06:53.993Z,7.27
2023-01-01T21:09:20.789Z,7.25
2023-01-01T21:11:47.645Z,7.17
2023-01-01T21:14:14.760Z,7.13
2023-01-01T21:16:43.846Z,7.11
2023-01-01T21:19:11.751Z,7.12
2023-01-01T21:21:50.693Z,7.04
2023-01-01T21:24:37.814Z,7.00
2023-01-01T21:27:24.315Z,6.97
2023-01-01T21:29:56.654Z,6.97
2023-01-01T21:32:24.909Z,6.95
2023-01-01T21:34:54.648Z,6.91
2023-01-01T21:37:47.620Z,6.89
2023-01-01T21:40:44.801Z,6.89
2023-01-01T21:43:32.586Z,6.85
2023-01-01T21:46:08.292Z,6.82
2023-01-01T21:48:39.844Z,6.82
2023-01-01T21:51:24.826Z,6.77
2023-01-01T21:53:52.470Z,6.80
2023-01-01T21:56:34.221Z,6.73
2023-01-01T21:59:37.153Z,6.66
2023-01-01T22:02:07.310Z,6.72
2023-01-01T22:04:38.161Z,6.72
2023-01-01T22:10:25.179Z,6.71
2023-01-01T22:12:59.535Z,6.69
2023-01-01T22:15:26.486Z,6.69
2023-01-01T22:18:27.409Z,6.64
2023-01-01T22:20:54.915Z,6.63
2023-01-01T22:23:35.766Z,6.57
2023-01-01T22:26:19.583Z,6.57
2023-01-01T22:28:50.439Z,6.55
2023-01-01T22:31:22.819Z,6.51
2023-01-01T22:33:51.751Z,6.51
2023-01-01T22:36:26.345Z,6.50
2023-01-01T22:38:56.362Z,6.51
2023-01-01T22:41:23.230Z,6.49
2023-01-01T22:43:53.615Z,6.52
2023-01-01T22:46:46.075Z,6.48
2023-01-01T22:49:22.592Z,6.50
2023-01-01T22:51:54.938Z,6.50
2023-01-01T22:54:23.670Z,6.50
2023-01-01T22:56:50.444Z,6.43
2023-01-01T22:59:17.505Z,6.47
2023-01-01T23:01:44.385Z,6.46
2023-01-01T23:04:11.229Z,6.44
2023-01-01T23:06:38.600Z,6.42
2023-01-01T23:09:06.345Z,6.41
2023-01-01T23:11:33.496Z,6.43
2023-01-01T23:14:18.749Z,6.38
2023-01-01T23:16:45.893Z,6.36
2023-01-01T23:19:12.762Z,6.35
2023-01-01T23:21:42.651Z,6.32
2023-01-01T23:24:15.445Z,6.25
2023-01-01T23:26:43.271Z,6.29
2023-01-01T23:29:11.870Z,6.23
2023-01-01T23:31:40.616Z,6.19
2023-01-01T23:34:08.235Z,6.20
2023-01-01T23:36:35.481Z,6.19
2023-01-01T23:39:02.277Z,6.20
2023-01-01T23:41:29.061Z,6.18
2023-01-01T23:43:55.893Z,6.23
2023-01-01T23:46:22.872Z,6.23
2023-01-01T23:48:50.102Z,6.27
2023-01-01T23:51:18.038Z,6.24
2023-01-01T23:53:45.269Z,6.22
2023-01-01T23:56:12.868Z,6.22
2023-01-01T23:58:39.723Z,6.19
